sensor_id;sensor_type;location;lat;lon;timestamp;temperature;humidity
7530;DHT22;3806;52.270;10.544;2023-08-17T00:00:06;21.60;98.50
7530;DHT22;3806;52.270;10.544;2023-08-17T00:02:36;21.60;98.60
7530;DHT22;3806;52.270;10.544;2023-08-17T00:05:01;21.60;98.70
7530;DHT22;3806;52.270;10.544;2023-08-17T00:07:27;21.50;98.80
7530;DHT22;3806;52.270;10.544;2023-08-17T00:09:52;21.60;99.00
7530;DHT22;3806;52.270;10.544;2023-08-17T00:12:18;21.60;99.00
7530;DHT22;3806;52.270;10.544;2023-08-17T00:14:43;21.60;99.10
7530;DHT22;3806;52.270;10.544;2023-08-17T00:17:09;21.60;99.10
7530;DHT22;3806;52.270;10.544;2023-08-17T00:19:34;21.60;99.20
7530;DHT22;3806;52.270;10.544;2023-08-17T00:22:00;21.60;99.40
7530;DHT22;3806;52.270;10.544;2023-08-17T00:24:25;21.60;99.50
7530;DHT22;3806;52.270;10.544;2023-08-17T00:26:51;21.60;99.60
7530;DHT22;3806;52.270;10.544;2023-08-17T00:29:16;21.50;99.80
7530;DHT22;3806;52.270;10.544;2023-08-17T00:31:42;21.50;99.90
7530;DHT22;3806;52.270;10.544;2023-08-17T00:34:08;21.50;99.90
7530;DHT22;3806;52.270;10.544;2023-08-17T00:36:33;21.50;99.90
7530;DHT22;3806;52.270;10.544;2023-08-17T00:38:59;21.40;99.90
7530;DHT22;3806;52.270;10.544;2023-08-17T00:41:24;21.50;99.90
7530;DHT22;3806;52.270;10.544;2023-08-17T00:43:50;21.40;99.90
7530;DHT22;3806;52.270;10.544;2023-08-17T00:46:16;21.40;99.90
7530;DHT22;3806;52.270;10.544;2023-08-17T00:48:42;21.40;99.90
7530;DHT22;3806;52.270;10.544;2023-08-17T00:51:08;21.30;99.90
7530;DHT22;3806;52.270;10.544;2023-08-17T00:53:34;21.30;99.90
7530;DHT22;3806;52.270;10.544;2023-08-17T00:56:01;21.30;99.90
7530;DHT22;3806;52.270;10.544;2023-08-17T00:58:27;21.30;99.90
7530;DHT22;3806;52.270;10.544;2023-08-17T01:00:53;21.20;99.90
7530;DHT22;3806;52.270;10.544;2023-08-17T01:03:18;21.20;99.90
7530;DHT22;3806;52.270;10.544;2023-08-17T01:05:46;21.20;99.90
7530;DHT22;3806;52.270;10.544;2023-08-17T01:08:11;21.20;99.90
7530;DHT22;3806;52.270;10.544;2023-08-17T01:11:03;21.10;99.90
7530;DHT22;3806;52.270;10.544;2023-08-17T01:14:09;21.10;99.90
7530;DHT22;3806;52.270;10.544;2023-08-17T01:16:44;21.10;99.90
7530;DHT22;3806;52.270;10.544;2023-08-17T01:19:12;21.20;99.90
7530;DHT22;3806;52.270;10.544;2023-08-17T01:21:49;21.10;99.90
7530;DHT22;3806;52.270;10.544;2023-08-17T01:24:15;21.10;99.90
7530;DHT22;3806;52.270;10.544;2023-08-17T01:26:40;21.10;99.90
7530;DHT22;3806;52.270;10.544;2023-08-17T01:29:06;21.00;99.90
7530;DHT22;3806;52.270;10.544;2023-08-17T01:31:46;21.00;99.90
7530;DHT22;3806;52.270;10.544;2023-08-17T01:34:16;21.00;99.90
7530;DHT22;3806;52.270;10.544;2023-08-17T01:36:47;20.90;99.90
7530;DHT22;3806;52.270;10.544;2023-08-17T01:39:15;20.90;99.90
7530;DHT22;3806;52.270;10.544;2023-08-17T01:41:42;20.90;99.90
7530;DHT22;3806;52.270;10.544;2023-08-17T01:44:09;20.90;99.90
7530;DHT22;3806;52.270;10.544;2023-08-17T01:46:35;20.90;99.90
7530;DHT22;3806;52.270;10.544;2023-08-17T01:49:01;20.90;99.90
7530;DHT22;3806;52.270;10.544;2023-08-17T01:51:26;20.90;99.90
7530;DHT22;3806;52.270;10.544;2023-08-17T01:53:53;20.80;99.90
7530;DHT22;3806;52.270;10.544;2023-08-17T01:56:18;20.80;99.90
7530;DHT22;3806;52.270;10.544;2023-08-17T01:58:44;20.80;99.90
7530;DHT22;3806;52.270;10.544;2023-08-17T02:01:09;20.80;99.90
7530;DHT22;3806;52.270;10.544;2023-08-17T02:03:35;20.70;99.90
7530;DHT22;3806;52.270;10.544;2023-08-17T02:06:00;20.70;99.90
7530;DHT22;3806;52.270;10.544;2023-08-17T02:08:26;20.50;99.90
7530;DHT22;3806;52.270;10.544;2023-08-17T02:10:52;20.50;99.90
7530;DHT22;3806;52.270;10.544;2023-08-17T02:13:18;20.40;99.90
7530;DHT22;3806;52.270;10.544;2023-08-17T02:15:44;20.40;99.90
7530;DHT22;3806;52.270;10.544;2023-08-17T02:18:10;20.40;99.90
7530;DHT22;3806;52.270;10.544;2023-08-17T02:20:35;20.40;99.90
7530;DHT22;3806;52.270;10.544;2023-08-17T02:23:01;20.40;99.90
7530;DHT22;3806;52.270;10.544;2023-08-17T02:25:27;20.40;99.90
7530;DHT22;3806;52.270;10.544;2023-08-17T02:27:59;20.40;99.90
7530;DHT22;3806;52.270;10.544;2023-08-17T02:30:25;20.40;99.90
7530;DHT22;3806;52.270;10.544;2023-08-17T02:32:50;20.40;99.90
7530;DHT22;3806;52.270;10.544;2023-08-17T02:35:16;20.40;99.90
7530;DHT22;3806;52.270;10.544;2023-08-17T02:37:41;20.40;99.90
7530;DHT22;3806;52.270;10.544;2023-08-17T02:40:07;20.40;99.90
7530;DHT22;3806;52.270;10.544;2023-08-17T02:42:33;20.40;99.90
7530;DHT22;3806;52.270;10.544;2023-08-17T02:44:58;20.40;99.90
7530;DHT22;3806;52.270;10.544;2023-08-17T02:47:24;20.40;99.90
7530;DHT22;3806;52.270;10.544;2023-08-17T02:49:49;20.40;99.90
7530;DHT22;3806;52.270;10.544;2023-08-17T02:52:15;20.40;99.90
7530;DHT22;3806;52.270;10.544;2023-08-17T02:54:40;20.40;99.90
7530;DHT22;3806;52.270;10.544;2023-08-17T02:57:06;20.40;99.90
7530;DHT22;3806;52.270;10.544;2023-08-17T02:59:31;20.40;99.90
7530;DHT22;3806;52.270;10.544;2023-08-17T03:01:57;20.40;99.90
7530;DHT22;3806;52.270;10.544;2023-08-17T03:04:22;20.40;99.90
7530;DHT22;3806;52.270;10.544;2023-08-17T03:06:48;20.50;99.90
7530;DHT22;3806;52.270;10.544;2023-08-17T03:09:13;20.50;99.90
7530;DHT22;3806;52.270;10.544;2023-08-17T03:11:39;20.50;99.90
7530;DHT22;3806;52.270;10.544;2023-08-17T03:14:05;20.50;99.90
7530;DHT22;3806;52.270;10.544;2023-08-17T03:16:30;20.40;99.90
7530;DHT22;3806;52.270;10.544;2023-08-17T03:18:56;20.40;99.90
7530;DHT22;3806;52.270;10.544;2023-08-17T03:21:22;20.30;99.90
7530;DHT22;3806;52.270;10.544;2023-08-17T03:23:48;20.30;99.90
7530;DHT22;3806;52.270;10.544;2023-08-17T03:26:14;20.40;99.90
7530;DHT22;3806;52.270;10.544;2023-08-17T03:28:40;20.40;99.90
7530;DHT22;3806;52.270;10.544;2023-08-17T03:31:07;20.40;99.90
7530;DHT22;3806;52.270;10.544;2023-08-17T03:33:34;20.30;99.90
7530;DHT22;3806;52.270;10.544;2023-08-17T03:36:00;20.30;99.90
7530;DHT22;3806;52.270;10.544;2023-08-17T03:38:26;20.30;99.90
7530;DHT22;3806;52.270;10.544;2023-08-17T03:40:51;20.30;99.90
7530;DHT22;3806;52.270;10.544;2023-08-17T03:43:17;20.30;99.90
7530;DHT22;3806;52.270;10.544;2023-08-17T03:45:43;20.30;99.90
7530;DHT22;3806;52.270;10.544;2023-08-17T03:48:09;20.20;99.90
7530;DHT22;3806;52.270;10.544;2023-08-17T03:50:35;20.20;99.90
7530;DHT22;3806;52.270;10.544;2023-08-17T03:53:00;20.20;99.90
7530;DHT22;3806;52.270;10.544;2023-08-17T03:55:26;20.10;99.90
7530;DHT22;3806;52.270;10.544;2023-08-17T03:57:52;20.10;99.90
7530;DHT22;3806;52.270;10.544;2023-08-17T04:00:17;20.10;99.90
7530;DHT22;3806;52.270;10.544;2023-08-17T04:02:43;20.10;99.90
7530;DHT22;3806;52.270;10.544;2023-08-17T04:05:09;20.10;99.90
7530;DHT22;3806;52.270;10.544;2023-08-17T04:07:34;20.10;99.90
7530;DHT22;3806;52.270;10.544;2023-08-17T04:10:00;20.10;99.90
7530;DHT22;3806;52.270;10.544;2023-08-17T04:12:25;20.10;99.90
7530;DHT22;3806;52.270;10.544;2023-08-17T04:14:51;20.10;99.90
7530;DHT22;3806;52.270;10.544;2023-08-17T04:17:17;20.10;99.90
7530;DHT22;3806;52.270;10.544;2023-08-17T04:19:42;20.10;99.90
7530;DHT22;3806;52.270;10.544;2023-08-17T04:22:08;20.10;99.90
7530;DHT22;3806;52.270;10.544;2023-08-17T04:24:33;20.10;99.90
7530;DHT22;3806;52.270;10.544;2023-08-17T04:26:59;20.10;99.90
7530;DHT22;3806;52.270;10.544;2023-08-17T04:29:25;20.10;99.90
7530;DHT22;3806;52.270;10.544;2023-08-17T04:31:51;20.10;99.90
7530;DHT22;3806;52.270;10.544;2023-08-17T04:34:16;20.10;99.90
7530;DHT22;3806;52.270;10.544;2023-08-17T04:36:42;20.10;99.90
7530;DHT22;3806;52.270;10.544;2023-08-17T04:39:07;20.10;99.90
7530;DHT22;3806;52.270;10.544;2023-08-17T04:41:34;20.10;99.90
7530;DHT22;3806;52.270;10.544;2023-08-17T04:44:00;20.00;99.90
7530;DHT22;3806;52.270;10.544;2023-08-17T04:46:25;20.10;99.90
7530;DHT22;3806;52.270;10.544;2023-08-17T04:48:51;20.10;99.90
7530;DHT22;3806;52.270;10.544;2023-08-17T04:51:17;20.00;99.90
7530;DHT22;3806;52.270;10.544;2023-08-17T04:53:43;20.10;99.90
7530;DHT22;3806;52.270;10.544;2023-08-17T04:56:08;20.10;99.90
7530;DHT22;3806;52.270;10.544;2023-08-17T04:58:34;20.10;99.90
7530;DHT22;3806;52.270;10.544;2023-08-17T05:00:59;20.10;99.90
7530;DHT22;3806;52.270;10.544;2023-08-17T05:03:25;20.10;99.90
7530;DHT22;3806;52.270;10.544;2023-08-17T05:05:54;20.10;99.90
7530;DHT22;3806;52.270;10.544;2023-08-17T05:08:19;20.10;99.90
7530;DHT22;3806;52.270;10.544;2023-08-17T05:10:47;20.10;99.90
7530;DHT22;3806;52.270;10.544;2023-08-17T05:13:13;20.10;99.90
7530;DHT22;3806;52.270;10.544;2023-08-17T05:15:38;20.20;99.90
7530;DHT22;3806;52.270;10.544;2023-08-17T05:18:05;20.20;99.90
7530;DHT22;3806;52.270;10.544;2023-08-17T05:20:30;20.20;99.90
7530;DHT22;3806;52.270;10.544;2023-08-17T05:22:56;20.20;99.90
7530;DHT22;3806;52.270;10.544;2023-08-17T05:25:21;20.20;99.90
7530;DHT22;3806;52.270;10.544;2023-08-17T05:27:48;20.20;99.90
7530;DHT22;3806;52.270;10.544;2023-08-17T05:30:15;20.20;99.90
7530;DHT22;3806;52.270;10.544;2023-08-17T05:32:41;20.20;99.90
7530;DHT22;3806;52.270;10.544;2023-08-17T05:35:06;20.10;99.90
7530;DHT22;3806;52.270;10.544;2023-08-17T05:37:32;20.20;99.90
7530;DHT22;3806;52.270;10.544;2023-08-17T05:39:58;20.20;99.90
7530;DHT22;3806;52.270;10.544;2023-08-17T05:42:23;20.20;99.90
7530;DHT22;3806;52.270;10.544;2023-08-17T05:44:49;20.20;99.90
7530;DHT22;3806;52.270;10.544;2023-08-17T05:47:14;20.20;99.90
7530;DHT22;3806;52.270;10.544;2023-08-17T05:49:42;20.20;99.90
7530;DHT22;3806;52.270;10.544;2023-08-17T05:52:08;20.20;99.90
7530;DHT22;3806;52.270;10.544;2023-08-17T05:54:34;20.20;99.90
7530;DHT22;3806;52.270;10.544;2023-08-17T05:57:02;20.10;99.90
7530;DHT22;3806;52.270;10.544;2023-08-17T05:59:28;20.10;99.90
7530;DHT22;3806;52.270;10.544;2023-08-17T06:01:54;20.20;99.90
7530;DHT22;3806;52.270;10.544;2023-08-17T06:04:20;20.20;99.90
7530;DHT22;3806;52.270;10.544;2023-08-17T06:06:46;20.10;99.90
7530;DHT22;3806;52.270;10.544;2023-08-17T06:09:12;20.10;99.90
7530;DHT22;3806;52.270;10.544;2023-08-17T06:11:39;20.10;99.90
7530;DHT22;3806;52.270;10.544;2023-08-17T06:14:05;20.20;99.90
7530;DHT22;3806;52.270;10.544;2023-08-17T06:16:31;20.10;99.90
7530;DHT22;3806;52.270;10.544;2023-08-17T06:18:56;20.10;99.90
7530;DHT22;3806;52.270;10.544;2023-08-17T06:21:22;20.10;99.90
7530;DHT22;3806;52.270;10.544;2023-08-17T06:23:47;20.10;99.90
7530;DHT22;3806;52.270;10.544;2023-08-17T06:26:13;20.10;99.90
7530;DHT22;3806;52.270;10.544;2023-08-17T06:28:39;20.10;99.90
7530;DHT22;3806;52.270;10.544;2023-08-17T06:31:04;20.10;99.90
7530;DHT22;3806;52.270;10.544;2023-08-17T06:33:30;20.10;99.90
7530;DHT22;3806;52.270;10.544;2023-08-17T06:35:55;20.10;99.90
7530;DHT22;3806;52.270;10.544;2023-08-17T06:38:21;20.10;99.90
7530;DHT22;3806;52.270;10.544;2023-08-17T06:40:46;20.10;99.90
7530;DHT22;3806;52.270;10.544;2023-08-17T06:43:13;20.10;99.90
7530;DHT22;3806;52.270;10.544;2023-08-17T06:45:39;20.10;99.90
7530;DHT22;3806;52.270;10.544;2023-08-17T06:48:04;20.20;99.90
7530;DHT22;3806;52.270;10.544;2023-08-17T06:50:30;20.10;99.90
7530;DHT22;3806;52.270;10.544;2023-08-17T06:52:55;20.10;99.90
7530;DHT22;3806;52.270;10.544;2023-08-17T06:55:21;20.00;99.90
7530;DHT22;3806;52.270;10.544;2023-08-17T06:57:47;20.00;99.90
7530;DHT22;3806;52.270;10.544;2023-08-17T07:00:15;20.00;99.90
7530;DHT22;3806;52.270;10.544;2023-08-17T07:02:41;20.00;99.90
7530;DHT22;3806;52.270;10.544;2023-08-17T07:05:06;20.10;99.90
7530;DHT22;3806;52.270;10.544;2023-08-17T07:07:32;20.10;99.90
7530;DHT22;3806;52.270;10.544;2023-08-17T07:09:58;20.10;99.90
7530;DHT22;3806;52.270;10.544;2023-08-17T07:12:23;20.20;99.90
7530;DHT22;3806;52.270;10.544;2023-08-17T07:14:49;20.20;99.90
7530;DHT22;3806;52.270;10.544;2023-08-17T07:17:15;20.20;99.90
7530;DHT22;3806;52.270;10.544;2023-08-17T07:19:41;20.20;99.90
7530;DHT22;3806;52.270;10.544;2023-08-17T07:22:06;20.20;99.90
7530;DHT22;3806;52.270;10.544;2023-08-17T07:24:32;20.20;99.90
7530;DHT22;3806;52.270;10.544;2023-08-17T07:26:58;20.20;99.90
7530;DHT22;3806;52.270;10.544;2023-08-17T07:29:23;20.20;99.90
7530;DHT22;3806;52.270;10.544;2023-08-17T07:31:49;20.20;99.90
7530;DHT22;3806;52.270;10.544;2023-08-17T07:34:14;20.20;99.90
7530;DHT22;3806;52.270;10.544;2023-08-17T07:36:40;20.20;99.90
7530;DHT22;3806;52.270;10.544;2023-08-17T07:39:05;20.20;99.90
7530;DHT22;3806;52.270;10.544;2023-08-17T07:41:31;20.30;99.90
7530;DHT22;3806;52.270;10.544;2023-08-17T07:43:57;20.30;99.90
7530;DHT22;3806;52.270;10.544;2023-08-17T07:46:22;20.30;99.90
7530;DHT22;3806;52.270;10.544;2023-08-17T07:48:48;20.20;99.90
7530;DHT22;3806;52.270;10.544;2023-08-17T07:51:14;20.20;99.90
7530;DHT22;3806;52.270;10.544;2023-08-17T07:53:39;20.30;99.90
7530;DHT22;3806;52.270;10.544;2023-08-17T07:56:05;20.30;99.90
7530;DHT22;3806;52.270;10.544;2023-08-17T07:58:30;20.40;99.90
7530;DHT22;3806;52.270;10.544;2023-08-17T08:00:56;20.30;99.90
7530;DHT22;3806;52.270;10.544;2023-08-17T08:03:21;20.30;99.90
7530;DHT22;3806;52.270;10.544;2023-08-17T08:05:47;20.30;99.90
7530;DHT22;3806;52.270;10.544;2023-08-17T08:08:12;20.30;99.90
7530;DHT22;3806;52.270;10.544;2023-08-17T08:10:40;20.30;99.90
7530;DHT22;3806;52.270;10.544;2023-08-17T08:13:05;20.40;99.90
7530;DHT22;3806;52.270;10.544;2023-08-17T08:15:32;20.40;99.90
7530;DHT22;3806;52.270;10.544;2023-08-17T08:17:58;20.40;99.90
7530;DHT22;3806;52.270;10.544;2023-08-17T08:20:23;20.50;99.90
7530;DHT22;3806;52.270;10.544;2023-08-17T08:22:49;20.50;99.90
7530;DHT22;3806;52.270;10.544;2023-08-17T08:25:14;20.50;99.90
7530;DHT22;3806;52.270;10.544;2023-08-17T08:27:40;20.60;99.90
7530;DHT22;3806;52.270;10.544;2023-08-17T08:30:06;20.70;99.90
7530;DHT22;3806;52.270;10.544;2023-08-17T08:32:32;20.70;99.90
7530;DHT22;3806;52.270;10.544;2023-08-17T08:34:58;20.70;99.90
7530;DHT22;3806;52.270;10.544;2023-08-17T08:37:23;20.80;99.90
7530;DHT22;3806;52.270;10.544;2023-08-17T08:39:54;20.90;99.90
7530;DHT22;3806;52.270;10.544;2023-08-17T08:42:20;20.90;99.90
7530;DHT22;3806;52.270;10.544;2023-08-17T08:44:46;20.90;99.90
7530;DHT22;3806;52.270;10.544;2023-08-17T08:47:12;21.00;99.90
7530;DHT22;3806;52.270;10.544;2023-08-17T08:52:23;21.00;99.90
7530;DHT22;3806;52.270;10.544;2023-08-17T08:54:54;21.00;99.90
7530;DHT22;3806;52.270;10.544;2023-08-17T08:57:21;21.10;99.90
7530;DHT22;3806;52.270;10.544;2023-08-17T08:59:47;21.20;99.90
7530;DHT22;3806;52.270;10.544;2023-08-17T09:02:16;21.20;99.90
7530;DHT22;3806;52.270;10.544;2023-08-17T09:04:43;21.20;99.90
7530;DHT22;3806;52.270;10.544;2023-08-17T09:07:11;21.30;99.90
7530;DHT22;3806;52.270;10.544;2023-08-17T09:09:38;21.30;99.90
7530;DHT22;3806;52.270;10.544;2023-08-17T09:12:06;21.40;99.90
7530;DHT22;3806;52.270;10.544;2023-08-17T09:14:32;21.40;99.90
7530;DHT22;3806;52.270;10.544;2023-08-17T09:16:57;21.50;99.90
7530;DHT22;3806;52.270;10.544;2023-08-17T09:19:24;21.50;99.90
7530;DHT22;3806;52.270;10.544;2023-08-17T09:21:50;21.50;99.90
7530;DHT22;3806;52.270;10.544;2023-08-17T09:24:16;21.60;99.90
7530;DHT22;3806;52.270;10.544;2023-08-17T09:26:41;21.50;99.90
7530;DHT22;3806;52.270;10.544;2023-08-17T09:29:17;21.50;99.90
7530;DHT22;3806;52.270;10.544;2023-08-17T09:31:43;21.60;99.90
7530;DHT22;3806;52.270;10.544;2023-08-17T09:34:09;21.60;99.90
7530;DHT22;3806;52.270;10.544;2023-08-17T09:36:39;21.50;99.90
7530;DHT22;3806;52.270;10.544;2023-08-17T09:39:04;21.50;99.90
7530;DHT22;3806;52.270;10.544;2023-08-17T09:41:30;21.50;99.90
7530;DHT22;3806;52.270;10.544;2023-08-17T09:43:55;21.50;99.90
7530;DHT22;3806;52.270;10.544;2023-08-17T09:46:21;21.40;99.90
7530;DHT22;3806;52.270;10.544;2023-08-17T09:48:47;21.40;99.90
7530;DHT22;3806;52.270;10.544;2023-08-17T09:51:16;21.40;99.90
7530;DHT22;3806;52.270;10.544;2023-08-17T09:53:42;21.40;99.90
7530;DHT22;3806;52.270;10.544;2023-08-17T09:56:09;21.30;99.90
7530;DHT22;3806;52.270;10.544;2023-08-17T09:58:36;21.30;99.90
7530;DHT22;3806;52.270;10.544;2023-08-17T10:01:04;21.20;99.90
7530;DHT22;3806;52.270;10.544;2023-08-17T10:03:33;21.20;99.90
7530;DHT22;3806;52.270;10.544;2023-08-17T10:06:04;21.10;99.90
7530;DHT22;3806;52.270;10.544;2023-08-17T10:08:31;21.10;99.90
7530;DHT22;3806;52.270;10.544;2023-08-17T10:10:59;21.00;99.90
7530;DHT22;3806;52.270;10.544;2023-08-17T10:13:47;21.00;99.90
7530;DHT22;3806;52.270;10.544;2023-08-17T10:16:24;21.00;99.90
7530;DHT22;3806;52.270;10.544;2023-08-17T10:19:06;21.00;99.90
7530;DHT22;3806;52.270;10.544;2023-08-17T10:21:44;21.00;99.90
7530;DHT22;3806;52.270;10.544;2023-08-17T10:24:12;20.90;99.90
7530;DHT22;3806;52.270;10.544;2023-08-17T10:26:38;20.90;99.90
7530;DHT22;3806;52.270;10.544;2023-08-17T10:29:04;20.80;99.90
7530;DHT22;3806;52.270;10.544;2023-08-17T10:31:33;20.80;99.90
7530;DHT22;3806;52.270;10.544;2023-08-17T10:33:59;20.80;99.90
7530;DHT22;3806;52.270;10.544;2023-08-17T10:36:25;20.70;99.90
7530;DHT22;3806;52.270;10.544;2023-08-17T10:39:21;20.70;99.90
7530;DHT22;3806;52.270;10.544;2023-08-17T10:41:48;20.60;99.90
7530;DHT22;3806;52.270;10.544;2023-08-17T10:44:15;20.50;99.90
7530;DHT22;3806;52.270;10.544;2023-08-17T10:46:41;20.50;99.90
7530;DHT22;3806;52.270;10.544;2023-08-17T10:49:24;20.50;99.90
7530;DHT22;3806;52.270;10.544;2023-08-17T10:52:03;20.50;99.90
7530;DHT22;3806;52.270;10.544;2023-08-17T10:54:39;20.50;99.90
7530;DHT22;3806;52.270;10.544;2023-08-17T10:57:24;20.60;99.90
7530;DHT22;3806;52.270;10.544;2023-08-17T11:00:24;20.60;99.90
7530;DHT22;3806;52.270;10.544;2023-08-17T11:02:54;20.50;99.90
7530;DHT22;3806;52.270;10.544;2023-08-17T11:08:10;20.70;99.90
7530;DHT22;3806;52.270;10.544;2023-08-17T11:10:36;20.80;99.90
7530;DHT22;3806;52.270;10.544;2023-08-17T11:13:04;20.90;99.90
7530;DHT22;3806;52.270;10.544;2023-08-17T11:15:37;21.00;99.90
7530;DHT22;3806;52.270;10.544;2023-08-17T11:18:05;21.10;99.90
7530;DHT22;3806;52.270;10.544;2023-08-17T11:20:31;21.20;99.90
7530;DHT22;3806;52.270;10.544;2023-08-17T11:22:57;21.30;99.90
7530;DHT22;3806;52.270;10.544;2023-08-17T11:25:24;21.40;99.90
7530;DHT22;3806;52.270;10.544;2023-08-17T11:27:50;21.50;99.90
7530;DHT22;3806;52.270;10.544;2023-08-17T11:30:15;21.60;99.90
7530;DHT22;3806;52.270;10.544;2023-08-17T11:32:41;21.70;99.90
7530;DHT22;3806;52.270;10.544;2023-08-17T11:35:06;21.80;99.90
7530;DHT22;3806;52.270;10.544;2023-08-17T11:37:32;21.90;99.90
7530;DHT22;3806;52.270;10.544;2023-08-17T11:39:58;21.90;99.90
7530;DHT22;3806;52.270;10.544;2023-08-17T11:42:24;21.80;99.90
7530;DHT22;3806;52.270;10.544;2023-08-17T11:44:50;21.70;99.90
7530;DHT22;3806;52.270;10.544;2023-08-17T11:47:15;21.70;99.90
7530;DHT22;3806;52.270;10.544;2023-08-17T11:49:41;21.70;99.90
7530;DHT22;3806;52.270;10.544;2023-08-17T11:52:09;21.70;99.90
7530;DHT22;3806;52.270;10.544;2023-08-17T11:54:40;21.70;99.90
7530;DHT22;3806;52.270;10.544;2023-08-17T11:57:05;21.70;99.90
7530;DHT22;3806;52.270;10.544;2023-08-17T11:59:31;21.80;99.90
7530;DHT22;3806;52.270;10.544;2023-08-17T12:01:59;21.80;99.90
7530;DHT22;3806;52.270;10.544;2023-08-17T12:04:24;21.90;99.90
7530;DHT22;3806;52.270;10.544;2023-08-17T12:06:50;21.90;99.90
7530;DHT22;3806;52.270;10.544;2023-08-17T12:09:17;21.90;99.90
7530;DHT22;3806;52.270;10.544;2023-08-17T12:11:44;21.90;99.90
7530;DHT22;3806;52.270;10.544;2023-08-17T12:14:11;21.90;99.90
7530;DHT22;3806;52.270;10.544;2023-08-17T12:16:49;21.80;99.90
7530;DHT22;3806;52.270;10.544;2023-08-17T12:19:14;21.70;99.90
7530;DHT22;3806;52.270;10.544;2023-08-17T12:21:43;21.70;99.90
7530;DHT22;3806;52.270;10.544;2023-08-17T12:24:09;21.80;99.90
7530;DHT22;3806;52.270;10.544;2023-08-17T12:26:41;21.80;99.90
7530;DHT22;3806;52.270;10.544;2023-08-17T12:29:07;21.80;99.90
7530;DHT22;3806;52.270;10.544;2023-08-17T12:31:34;21.70;99.90
7530;DHT22;3806;52.270;10.544;2023-08-17T12:33:59;21.80;99.90
7530;DHT22;3806;52.270;10.544;2023-08-17T12:36:25;21.80;99.90
7530;DHT22;3806;52.270;10.544;2023-08-17T12:38:50;21.80;99.90
7530;DHT22;3806;52.270;10.544;2023-08-17T12:41:16;21.80;99.90
7530;DHT22;3806;52.270;10.544;2023-08-17T12:43:43;21.80;99.90
7530;DHT22;3806;52.270;10.544;2023-08-17T12:46:08;21.80;99.90
7530;DHT22;3806;52.270;10.544;2023-08-17T12:48:34;21.70;99.90
7530;DHT22;3806;52.270;10.544;2023-08-17T12:50:59;21.70;99.90
7530;DHT22;3806;52.270;10.544;2023-08-17T12:53:25;21.70;99.90
7530;DHT22;3806;52.270;10.544;2023-08-17T12:55:51;21.60;99.90
7530;DHT22;3806;52.270;10.544;2023-08-17T12:58:17;21.50;99.90
7530;DHT22;3806;52.270;10.544;2023-08-17T13:00:42;21.50;99.90
7530;DHT22;3806;52.270;10.544;2023-08-17T13:03:08;21.40;99.90
7530;DHT22;3806;52.270;10.544;2023-08-17T13:05:33;21.30;99.90
7530;DHT22;3806;52.270;10.544;2023-08-17T13:07:59;21.20;99.90
7530;DHT22;3806;52.270;10.544;2023-08-17T13:10:25;21.10;99.90
7530;DHT22;3806;52.270;10.544;2023-08-17T13:12:50;21.10;99.90
7530;DHT22;3806;52.270;10.544;2023-08-17T13:15:21;21.10;99.90
7530;DHT22;3806;52.270;10.544;2023-08-17T13:17:46;21.00;99.90
7530;DHT22;3806;52.270;10.544;2023-08-17T13:20:12;21.00;99.90
7530;DHT22;3806;52.270;10.544;2023-08-17T13:22:37;20.90;99.90
7530;DHT22;3806;52.270;10.544;2023-08-17T13:25:03;20.80;99.90
7530;DHT22;3806;52.270;10.544;2023-08-17T13:27:29;20.80;99.90
7530;DHT22;3806;52.270;10.544;2023-08-17T13:29:54;20.80;99.90
7530;DHT22;3806;52.270;10.544;2023-08-17T13:32:20;20.70;99.90
7530;DHT22;3806;52.270;10.544;2023-08-17T13:34:45;20.80;99.90
7530;DHT22;3806;52.270;10.544;2023-08-17T13:37:11;20.70;99.90
7530;DHT22;3806;52.270;10.544;2023-08-17T13:39:36;20.70;99.90
7530;DHT22;3806;52.270;10.544;2023-08-17T13:42:02;20.80;99.90
7530;DHT22;3806;52.270;10.544;2023-08-17T13:44:28;20.80;99.90
7530;DHT22;3806;52.270;10.544;2023-08-17T13:46:53;20.80;99.90
7530;DHT22;3806;52.270;10.544;2023-08-17T13:49:19;20.80;99.90
7530;DHT22;3806;52.270;10.544;2023-08-17T13:51:44;20.90;99.90
7530;DHT22;3806;52.270;10.544;2023-08-17T13:54:10;20.90;99.90
7530;DHT22;3806;52.270;10.544;2023-08-17T13:56:35;21.00;99.90
7530;DHT22;3806;52.270;10.544;2023-08-17T13:59:01;21.00;99.90
7530;DHT22;3806;52.270;10.544;2023-08-17T14:01:27;21.10;99.90
7530;DHT22;3806;52.270;10.544;2023-08-17T14:03:53;21.10;99.90
7530;DHT22;3806;52.270;10.544;2023-08-17T14:06:18;21.10;99.90
7530;DHT22;3806;52.270;10.544;2023-08-17T14:08:44;21.20;99.90
7530;DHT22;3806;52.270;10.544;2023-08-17T14:11:09;21.20;99.90
7530;DHT22;3806;52.270;10.544;2023-08-17T14:13:35;21.30;99.90
7530;DHT22;3806;52.270;10.544;2023-08-17T14:16:02;21.30;99.90
7530;DHT22;3806;52.270;10.544;2023-08-17T14:18:28;21.30;99.90
7530;DHT22;3806;52.270;10.544;2023-08-17T14:20:53;21.30;99.90
7530;DHT22;3806;52.270;10.544;2023-08-17T14:23:19;21.30;99.90
7530;DHT22;3806;52.270;10.544;2023-08-17T14:25:44;21.20;99.90
7530;DHT22;3806;52.270;10.544;2023-08-17T14:28:10;21.30;99.90
7530;DHT22;3806;52.270;10.544;2023-08-17T14:30:36;21.30;99.90
7530;DHT22;3806;52.270;10.544;2023-08-17T14:33:01;21.30;99.90
7530;DHT22;3806;52.270;10.544;2023-08-17T14:35:27;21.30;99.90
7530;DHT22;3806;52.270;10.544;2023-08-17T14:37:53;21.30;99.90
7530;DHT22;3806;52.270;10.544;2023-08-17T14:40:23;21.30;99.90
7530;DHT22;3806;52.270;10.544;2023-08-17T14:42:48;21.20;99.90
7530;DHT22;3806;52.270;10.544;2023-08-17T14:45:14;21.10;99.90
7530;DHT22;3806;52.270;10.544;2023-08-17T14:47:39;21.10;99.90
7530;DHT22;3806;52.270;10.544;2023-08-17T14:50:06;21.00;99.90
7530;DHT22;3806;52.270;10.544;2023-08-17T14:52:32;21.00;99.90
7530;DHT22;3806;52.270;10.544;2023-08-17T14:54:57;21.00;99.90
7530;DHT22;3806;52.270;10.544;2023-08-17T14:57:23;21.00;99.90
7530;DHT22;3806;52.270;10.544;2023-08-17T14:59:48;21.00;99.90
7530;DHT22;3806;52.270;10.544;2023-08-17T15:02:14;21.00;99.90
7530;DHT22;3806;52.270;10.544;2023-08-17T15:04:42;21.10;99.90
7530;DHT22;3806;52.270;10.544;2023-08-17T15:07:07;21.20;99.90
7530;DHT22;3806;52.270;10.544;2023-08-17T15:09:37;21.30;99.90
7530;DHT22;3806;52.270;10.544;2023-08-17T15:12:03;21.30;99.90
7530;DHT22;3806;52.270;10.544;2023-08-17T15:14:29;21.30;99.90
7530;DHT22;3806;52.270;10.544;2023-08-17T15:16:55;21.30;99.90
7530;DHT22;3806;52.270;10.544;2023-08-17T15:19:20;21.20;99.90
7530;DHT22;3806;52.270;10.544;2023-08-17T15:21:46;21.20;99.90
7530;DHT22;3806;52.270;10.544;2023-08-17T15:24:12;21.10;99.90
7530;DHT22;3806;52.270;10.544;2023-08-17T15:26:37;21.10;99.90
7530;DHT22;3806;52.270;10.544;2023-08-17T15:29:03;21.10;99.90
7530;DHT22;3806;52.270;10.544;2023-08-17T15:31:29;21.00;99.90
7530;DHT22;3806;52.270;10.544;2023-08-17T15:33:54;21.00;99.90
7530;DHT22;3806;52.270;10.544;2023-08-17T15:36:20;21.00;99.90
7530;DHT22;3806;52.270;10.544;2023-08-17T15:38:49;21.00;99.90
7530;DHT22;3806;52.270;10.544;2023-08-17T15:41:15;21.00;99.90
7530;DHT22;3806;52.270;10.544;2023-08-17T15:43:40;20.90;99.90
7530;DHT22;3806;52.270;10.544;2023-08-17T15:46:06;20.90;99.90